Time;durP1;ratioP1;P1;durP2;ratioP2;P2;SDS_P1;SDS_P2;PMS_P1;PMS_P2;Temp;Humidity;BMP_temperature;BMP_pressure;BME280_temperature;BME280_humidity;BME280_pressure;Samples;Min_cycle;Max_cycle;Signal;HPM_P1;HPM_P2
2021/05/02 00:01:09;;;;;;;41.92;32.88;;;14.50;69.50;;;14.07;53.64;93501.13;5037765;28;20221;-81
2021/05/02 00:03:36;;;;;;;46.22;34.35;;;14.40;69.50;;;14.05;53.66;93492.69;5054128;28;20222;-80
2021/05/02 00:06:06;;;;;;;40.08;31.92;;;14.50;70.60;;;14.04;53.44;93483.97;5070304;28;20214;-81
2021/05/02 00:08:33;;;;;;;42.10;32.75;;;14.40;69.80;;;14.02;53.42;93475.50;5053864;28;20309;-80
2021/05/02 00:11:01;;;;;;;44.08;33.53;;;14.40;69.60;;;14.00;53.64;93474.97;5053807;28;20250;-81
2021/05/02 00:13:28;;;;;;;50.60;35.38;;;14.40;69.70;;;13.98;53.89;93461.25;5063177;28;20317;-81
2021/05/02 00:15:55;;;;;;;43.45;33.13;;;14.30;69.70;;;13.96;53.48;93460.69;5050062;28;20214;-81
2021/05/02 00:18:26;;;;;;;43.75;31.77;;;14.40;69.70;;;13.96;53.48;93455.41;5073399;28;20222;-81
2021/05/02 00:20:54;;;;;;;44.25;33.13;;;14.30;70.10;;;13.93;53.55;93446.16;5057119;28;20205;-81
2021/05/02 00:23:22;;;;;;;40.58;30.33;;;14.30;69.80;;;13.95;53.41;93447.75;5071038;28;20226;-81
2021/05/02 00:25:50;;;;;;;39.15;29.60;;;14.30;69.80;;;13.95;53.35;93474.13;5037390;28;20210;-81
2021/05/02 00:28:16;;;;;;;42.42;31.27;;;14.20;69.80;;;13.95;53.47;93463.56;5053569;28;20238;-80
2021/05/02 00:30:44;;;;;;;43.15;31.52;;;14.30;70.00;;;13.98;53.38;93468.38;5038643;28;20226;-81
2021/05/02 00:33:11;;;;;;;44.50;31.35;;;14.20;70.00;;;13.97;53.97;93462.28;5070371;28;20244;-80
2021/05/02 00:35:38;;;;;;;41.30;30.30;;;14.20;70.10;;;14.01;53.62;93462.59;5056897;28;20243;-81
2021/05/02 00:38:05;;;;;;;42.70;31.77;;;14.30;70.30;;;14.02;53.66;93459.69;5057017;28;20633;-80
2021/05/02 00:40:40;;;;;;;40.08;30.98;;;14.20;70.20;;;14.03;53.99;93456.00;5070010;28;20194;-81
2021/05/02 00:43:13;;;;;;;47.15;34.83;;;14.30;70.50;;;14.04;53.95;93451.56;5020588;28;20303;-81
2021/05/02 00:46:12;;;;;;;45.58;34.45;;;14.30;70.60;;;14.03;53.84;93458.66;5070037;28;20210;-80
2021/05/02 00:48:53;;;;;;;45.17;33.85;;;14.30;70.50;;;14.02;53.84;93445.72;5037766;28;20209;-80
2021/05/02 00:51:22;;;;;;;38.67;30.23;;;14.30;70.30;;;14.03;53.83;93448.09;5057095;28;20468;-80
2021/05/02 00:54:07;;;;;;;45.30;33.70;;;14.40;70.50;;;14.04;53.98;93441.78;5041367;28;20218;-80
2021/05/02 00:56:41;;;;;;;49.97;36.10;;;14.30;71.60;;;14.02;53.98;93438.59;5073277;28;20549;-80
2021/05/02 00:59:18;;;;;;;49.47;34.03;;;14.30;70.60;;;14.02;54.05;93435.19;5067458;28;20206;-80
2021/05/02 01:01:50;;;;;;;42.35;31.15;;;14.30;70.60;;;13.99;54.06;93430.41;5036865;28;20202;-80
2021/05/02 01:04:31;;;;;;;45.63;33.28;;;14.30;70.90;;;13.98;53.97;93431.47;5036661;28;20203;-80
2021/05/02 01:07:03;;;;;;;43.90;33.55;;;14.30;71.00;;;13.98;54.24;93428.81;5064732;28;20225;-80
2021/05/02 01:09:32;;;;;;;44.67;33.05;;;14.30;71.10;;;13.95;53.94;93422.19;5056427;28;20206;-79
2021/05/02 01:12:01;;;;;;;43.40;32.45;;;14.30;70.70;;;13.97;54.18;93414.06;5044101;28;20255;-80
2021/05/02 01:14:31;;;;;;;46.22;32.67;;;14.40;71.00;;;13.96;54.20;93407.97;5053176;28;20202;-80
2021/05/02 01:16:59;;;;;;;39.63;30.15;;;14.30;71.00;;;13.96;54.21;93407.97;5052893;28;20259;-79
2021/05/02 01:19:28;;;;;;;41.75;30.58;;;14.30;70.90;;;13.95;54.45;93395.81;5069722;28;20198;-80
2021/05/02 01:21:59;;;;;;;42.60;31.80;;;14.20;71.00;;;13.93;54.22;93382.91;5043310;28;20201;-80
2021/05/02 01:24:27;;;;;;;42.83;32.03;;;14.30;71.20;;;13.91;54.31;93392.13;5030777;28;20218;-80
2021/05/02 01:26:53;;;;;;;44.70;32.22;;;14.20;70.90;;;13.88;54.36;93384.72;5061678;28;20567;-80
2021/05/02 01:29:20;;;;;;;44.78;33.28;;;14.20;71.00;;;13.87;54.60;93383.13;5072770;28;20213;-79
2021/05/02 01:31:47;;;;;;;43.72;32.55;;;14.20;71.00;;;13.82;54.53;93380.41;5051215;28;20218;-80
2021/05/02 01:34:14;;;;;;;46.17;33.78;;;14.20;71.00;;;13.80;54.79;93385.94;5036156;28;20664;-80
2021/05/02 01:36:41;;;;;;;41.40;31.58;;;14.10;71.00;;;13.76;54.73;93380.38;5039272;28;20241;-79
2021/05/02 01:39:08;;;;;;;46.13;32.83;;;14.20;71.30;;;13.77;54.86;93370.66;5069408;28;20202;-80
2021/05/02 01:41:36;;;;;;;44.10;32.30;;;14.10;71.30;;;13.73;55.05;93359.81;5052506;28;20194;-80
2021/05/02 01:44:04;;;;;;;46.33;32.28;;;14.10;71.30;;;13.71;54.77;93354.00;5057438;28;20816;-80
2021/05/02 01:46:38;;;;;;;43.03;32.53;;;14.10;71.30;;;13.70;55.07;93355.03;5072723;28;20195;-80
2021/05/02 01:49:10;;;;;;;47.22;32.80;;;14.00;71.50;;;13.65;55.18;93341.81;5075618;28;20232;-80
2021/05/02 01:51:38;;;;;;;48.72;33.53;;;14.00;71.70;;;13.61;54.96;93332.84;5071724;28;20218;-81
2021/05/02 01:54:06;;;;;;;49.88;34.78;;;14.00;71.30;;;13.58;54.94;93349.13;5056076;28;20187;-80
2021/05/02 01:56:34;;;;;;;48.17;34.03;;;13.90;71.30;;;13.54;55.11;93334.88;5056042;28;20602;-80
2021/05/02 01:59:04;;;;;;;50.33;34.38;;;13.90;71.40;;;13.47;55.41;93319.25;5056813;28;20363;-80
2021/05/02 02:01:32;;;;;;;47.42;35.50;;;13.90;71.50;;;13.42;55.38;93322.63;5050816;28;20198;-80
2021/05/02 02:04:02;;;;;;;48.83;34.95;;;13.90;71.40;;;13.38;55.53;93326.03;5049913;28;20217;-80
2021/05/02 02:06:31;;;;;;;51.35;36.20;;;13.80;71.50;;;13.33;55.62;93308.31;5075788;28;20659;-80
2021/05/02 02:08:59;;;;;;;52.95;38.08;;;13.80;71.60;;;13.28;55.78;93300.34;5072874;28;20589;-81
2021/05/02 02:11:29;;;;;;;49.50;33.92;;;13.70;71.60;;;13.25;55.74;93299.00;5059119;28;20256;-80
2021/05/02 02:13:57;;;;;;;48.42;34.65;;;13.70;72.10;;;13.23;55.56;93305.56;5075564;28;20275;-79
2021/05/02 02:16:25;;;;;;;45.17;33.13;;;13.70;71.70;;;13.19;55.81;93294.72;5048227;28;20210;-80
2021/05/02 02:18:52;;;;;;;49.78;35.00;;;13.60;71.90;;;13.15;56.07;93282.31;5071028;28;20225;-80
2021/05/02 02:21:23;;;;;;;47.78;34.80;;;13.60;71.80;;;13.10;56.10;93268.06;5066038;28;20198;-80
2021/05/02 02:24:12;;;;;;;49.50;33.67;;;13.50;72.00;;;13.02;56.33;93271.13;5075678;28;20218;-80
2021/05/02 02:26:55;;;;;;;50.67;35.80;;;13.50;72.30;;;12.98;56.23;93270.81;5055271;28;20250;-79
2021/05/02 02:29:25;;;;;;;48.83;34.78;;;13.50;72.30;;;12.97;56.22;93273.69;5024671;28;20214;-81
2021/05/02 02:31:52;;;;;;;44.60;33.03;;;13.40;72.10;;;12.95;56.32;93278.41;5055400;28;20567;-80
2021/05/02 02:34:21;;;;;;;46.00;32.00;;;13.30;72.10;;;12.95;56.38;93278.41;5072388;28;20234;-80
2021/05/02 02:36:48;;;;;;;45.17;32.65;;;13.40;72.20;;;12.97;56.22;93276.34;5046475;28;20279;-81
2021/05/02 02:39:15;;;;;;;44.08;32.50;;;13.30;72.40;;;12.97;56.47;93268.44;5055570;28;20648;-81
2021/05/02 02:41:44;;;;;;;44.63;33.53;;;13.30;72.70;;;13.01;56.43;93282.72;5055365;28;20215;-81
2021/05/02 02:44:11;;;;;;;42.63;31.27;;;13.30;72.70;;;13.03;56.30;93279.81;5055231;28;20202;-81
2021/05/02 02:46:46;;;;;;;43.03;31.02;;;13.40;72.70;;;13.05;56.53;93291.69;5039422;28;20221;-80
2021/05/02 02:49:14;;;;;;;39.42;29.17;;;13.30;73.00;;;13.05;56.54;93273.28;5039053;28;20651;-80
2021/05/02 02:51:41;;;;;;;40.47;28.73;;;13.30;72.80;;;13.08;56.29;93291.19;5055002;28;20664;-80
2021/05/02 02:54:12;;;;;;;40.00;30.20;;;13.30;72.80;;;13.08;56.59;93309.59;5039513;28;20210;-80
2021/05/02 02:56:46;;;;;;;37.83;29.38;;;13.30;72.80;;;13.05;56.64;93361.94;5038410;28;20252;-80
2021/05/02 02:59:20;;;;;;;35.58;28.30;;;13.40;73.90;;;12.98;57.17;93362.16;5055114;28;20194;-80
2021/05/02 03:01:48;;;;;;;39.75;29.15;;;13.50;73.20;;;12.92;57.49;93363.13;5021991;28;20202;-80
2021/05/02 03:04:18;;;;;;;34.05;27.00;;;13.40;74.00;;;12.85;57.84;93368.56;5055044;28;20249;-80
2021/05/02 03:06:45;;;;;;;35.45;25.67;;;13.30;73.50;;;12.79;58.14;93369.53;5066274;28;20203;-80
2021/05/02 03:09:16;;;;;;;32.20;26.35;;;13.30;73.10;;;12.72;58.68;93374.97;5070980;28;20242;-80
2021/05/02 03:11:43;;;;;;;32.97;25.02;;;13.20;73.80;;;12.70;58.40;93374.41;5038146;28;20234;-81
2021/05/02 03:14:14;;;;;;;32.63;24.67;;;13.30;73.50;;;12.69;58.16;93374.66;5055124;28;20213;-81
2021/05/02 03:16:43;;;;;;;29.75;23.30;;;13.20;74.00;;;12.67;58.31;93376.72;5043553;28;20195;-80
2021/05/02 03:19:27;;;;;;;26.98;21.15;;;13.10;73.80;;;12.66;58.34;93378.59;5072670;28;20217;-80
2021/05/02 03:22:16;;;;;;;28.27;22.48;;;13.10;74.40;;;12.63;59.23;93382.50;5060320;28;20216;-80
2021/05/02 03:24:49;;;;;;;24.30;20.20;;;13.10;74.60;;;12.60;59.83;93393.47;5062002;28;20202;-80
2021/05/02 03:27:22;;;;;;;25.45;20.42;;;13.10;74.30;;;12.60;59.76;93390.06;5038240;28;20829;-81
2021/05/02 03:29:50;;;;;;;27.40;21.75;;;13.10;75.00;;;12.55;60.53;93384.72;5037900;28;20280;-79
2021/05/02 03:32:24;;;;;;;25.15;20.48;;;13.10;74.80;;;12.55;59.51;93390.78;5039641;28;20215;-81
2021/05/02 03:34:56;;;;;;;21.45;17.70;;;13.00;75.10;;;12.53;59.86;93392.84;5054724;28;20655;-81
2021/05/02 03:37:28;;;;;;;22.75;18.65;;;12.90;74.80;;;12.51;61.05;93391.50;5054586;28;20214;-80
2021/05/02 03:39:55;;;;;;;21.55;17.35;;;13.00;75.40;;;12.44;61.49;93389.06;5054558;28;20731;-81
2021/05/02 03:42:22;;;;;;;20.38;15.90;;;13.10;75.70;;;12.48;61.50;93400.69;5051250;28;20219;-80
2021/05/02 03:44:48;;;;;;;18.95;14.50;;;12.90;75.40;;;12.47;61.42;93407.78;5053458;28;20213;-80
2021/05/02 03:47:15;;;;;;;19.42;14.65;;;13.00;75.60;;;12.42;61.76;93415.56;5080514;28;20220;-81
2021/05/02 03:49:42;;;;;;;19.88;14.77;;;13.00;75.80;;;12.39;62.69;93421.31;5074396;28;20202;-81
2021/05/02 03:52:15;;;;;;;21.98;15.68;;;13.00;76.50;;;12.39;62.61;93429.22;5074035;28;20222;-81
2021/05/02 03:54:43;;;;;;;13.07;11.05;;;12.90;76.60;;;12.35;63.56;93458.84;5053536;28;20293;-80
2021/05/02 03:57:10;;;;;;;12.23;9.60;;;12.90;76.60;;;12.25;63.58;93455.00;5021470;28;20226;-81
2021/05/02 03:59:38;;;;;;;9.25;8.00;;;12.80;76.60;;;12.19;63.62;93440.19;5054244;28;20293;-80
2021/05/02 04:02:05;;;;;;;10.15;8.20;;;12.80;76.60;;;12.15;64.02;93457.47;5038966;28;20210;-81
2021/05/02 04:04:36;;;;;;;8.32;7.22;;;12.70;76.50;;;12.09;64.12;93461.84;5037456;28;20230;-81
2021/05/02 04:07:05;;;;;;;8.75;6.82;;;12.70;76.80;;;12.06;63.81;93458.88;5059048;28;20776;-81
2021/05/02 04:09:34;;;;;;;7.85;6.53;;;12.60;76.70;;;11.98;64.24;93474.00;5041063;28;20206;-81
2021/05/02 04:12:06;;;;;;;6.20;5.45;;;12.60;76.90;;;11.96;64.75;93475.25;5054931;28;20231;-81
2021/05/02 04:14:33;;;;;;;6.60;5.90;;;12.60;77.00;;;11.89;65.20;93482.47;5053862;28;20667;-81
2021/05/02 04:17:06;;;;;;;4.35;3.95;;;12.50;77.50;;;11.84;64.85;93489.25;5050517;28;20274;-81
2021/05/02 04:19:39;;;;;;;3.80;3.50;;;12.50;77.50;;;11.77;64.54;93474.66;5051959;28;20194;-80
2021/05/02 04:22:07;;;;;;;3.63;3.30;;;12.40;77.50;;;11.73;64.90;93490.09;5073852;28;20321;-81
2021/05/02 04:24:34;;;;;;;2.97;2.67;;;12.40;77.40;;;11.66;65.41;93497.31;5056032;28;20569;-81
2021/05/02 04:27:02;;;;;;;2.90;2.55;;;12.30;77.60;;;11.60;65.11;93516.63;5057067;28;20587;-81
2021/05/02 04:29:31;;;;;;;2.95;2.72;;;12.20;77.70;;;11.55;65.12;93512.06;5057095;28;20228;-81
2021/05/02 04:32:00;;;;;;;2.40;2.20;;;12.20;78.50;;;11.50;65.51;93514.59;5052915;28;20716;-80
2021/05/02 04:34:27;;;;;;;2.38;2.10;;;12.10;77.90;;;11.43;65.73;93503.41;5042768;28;20231;-80
2021/05/02 04:36:56;;;;;;;2.47;2.22;;;12.10;78.00;;;11.38;64.83;93525.88;5037386;28;20227;-80
2021/05/02 04:39:24;;;;;;;2.25;2.00;;;12.00;77.80;;;11.36;65.05;93530.59;5039423;28;20210;-81
2021/05/02 04:41:51;;;;;;;3.92;2.05;;;12.00;77.90;;;11.32;65.37;93533.91;5055106;28;20787;-80
2021/05/02 04:44:19;;;;;;;2.10;1.90;;;12.00;78.40;;;11.28;65.18;93538.81;5071891;28;20195;-80
2021/05/02 04:46:46;;;;;;;3.80;2.13;;;11.90;78.00;;;11.26;64.88;93542.69;5054859;28;20572;-82
2021/05/02 04:49:13;;;;;;;2.10;1.90;;;11.80;77.90;;;11.26;65.15;93553.97;5034030;28;20203;-80
2021/05/02 04:51:40;;;;;;;2.67;2.10;;;11.80;77.90;;;11.23;65.88;93551.84;5056337;28;20230;-81
2021/05/02 04:54:08;;;;;;;2.85;2.33;;;11.80;78.10;;;11.24;65.47;93555.25;5042021;28;20210;-81
2021/05/02 04:56:37;;;;;;;2.50;2.30;;;11.80;78.20;;;11.21;65.51;93567.00;5078246;28;20248;-81
2021/05/02 04:59:05;;;;;;;2.72;2.10;;;11.80;78.40;;;11.22;65.20;93579.09;5070264;28;20232;-82
2021/05/02 05:01:34;;;;;;;3.20;2.15;;;11.80;78.30;;;11.18;65.88;93594.50;5073421;28;20197;-81
2021/05/02 05:04:01;;;;;;;2.78;2.42;;;11.80;78.50;;;11.19;65.24;93598.72;5088413;28;20225;-82
2021/05/02 05:06:28;;;;;;;2.22;2.00;;;11.80;78.40;;;11.15;66.19;93588.91;5043054;28;20198;-81
2021/05/02 05:08:54;;;;;;;3.38;2.28;;;11.80;78.80;;;11.12;66.07;93619.03;5051067;28;20265;-80
2021/05/02 05:11:21;;;;;;;2.83;2.17;;;11.80;78.80;;;11.10;66.47;93612.41;5050544;28;20237;-82
2021/05/02 05:13:48;;;;;;;2.20;2.00;;;11.70;78.80;;;11.11;66.60;93627.09;5053134;28;20313;-82
2021/05/02 05:16:15;;;;;;;2.00;1.80;;;11.70;78.80;;;11.09;66.05;93626.56;5053152;28;20207;-81
2021/05/02 05:18:42;;;;;;;1.70;1.60;;;11.70;78.70;;;11.09;66.21;93639.69;5061240;28;20234;-81
2021/05/02 05:21:09;;;;;;;1.60;1.50;;;11.70;78.60;;;11.08;66.08;93643.31;5053850;28;20217;-81
2021/05/02 05:23:35;;;;;;;1.58;1.48;;;11.60;78.80;;;11.03;66.17;93638.75;5057198;28;20226;-81
2021/05/02 05:26:02;;;;;;;1.85;1.70;;;11.60;78.90;;;11.00;66.72;93660.19;5093350;28;20218;-81
2021/05/02 05:28:28;;;;;;;1.58;1.40;;;11.60;78.90;;;10.96;66.30;93661.66;5060132;28;20625;-81
2021/05/02 05:30:55;;;;;;;1.75;1.55;;;11.60;79.90;;;10.92;66.13;93663.16;5058245;28;20314;-80
2021/05/02 05:33:27;;;;;;;1.88;1.60;;;11.50;79.00;;;10.88;66.17;93660.97;5055588;28;20215;-80
2021/05/02 05:35:55;;;;;;;1.92;1.58;;;11.50;79.00;;;10.87;65.76;93667.22;5044181;28;20248;-80
2021/05/02 05:38:22;;;;;;;1.50;1.40;;;11.50;78.80;;;10.88;65.84;93689.81;5039884;28;20331;-81
2021/05/02 05:40:49;;;;;;;1.60;1.40;;;11.50;78.80;;;10.85;66.11;93700.75;5044866;28;20205;-81
2021/05/02 05:43:15;;;;;;;1.77;1.50;;;11.50;78.90;;;10.82;66.31;93716.16;5074366;28;20507;-78
2021/05/02 05:45:42;;;;;;;1.58;1.48;;;11.40;79.00;;;10.78;66.28;93707.91;5053625;28;20199;-79
2021/05/02 05:48:09;;;;;;;1.52;1.42;;;11.40;79.00;;;10.74;66.24;93714.63;5055997;28;20682;-80
2021/05/02 05:50:35;;;;;;;1.90;1.52;;;11.40;79.10;;;10.66;66.50;93718.34;5073867;28;20272;-79
2021/05/02 05:53:02;;;;;;;1.50;1.40;;;11.40;79.20;;;10.66;66.34;93718.34;5049274;28;20688;-80
2021/05/02 05:55:28;;;;;;;1.25;1.23;;;11.30;79.00;;;10.61;66.56;93728.72;5054402;28;20203;-79
2021/05/02 05:57:55;;;;;;;1.50;1.40;;;11.20;79.00;;;10.60;66.71;93749.91;5052249;28;20218;-79
2021/05/02 06:00:23;;;;;;;1.40;1.30;;;11.20;79.10;;;10.59;66.09;93737.84;5057532;28;20667;-79
2021/05/02 06:02:50;;;;;;;2.05;1.60;;;11.20;79.10;;;10.56;66.47;93758.22;5088337;28;20215;-80
2021/05/02 06:05:17;;;;;;;1.55;1.40;;;11.20;79.20;;;10.52;66.81;93743.13;5045480;28;20225;-79
2021/05/02 06:07:44;;;;;;;1.40;1.30;;;11.10;79.30;;;10.49;67.64;93756.69;5039168;28;20268;-80
2021/05/02 06:10:12;;;;;;;1.67;1.30;;;11.10;79.40;;;10.47;66.80;93767.38;5066302;28;20545;-79
2021/05/02 06:12:39;;;;;;;1.40;1.30;;;11.10;79.30;;;10.46;66.80;93744.03;5091654;28;20226;-79
2021/05/02 06:15:10;;;;;;;1.77;1.40;;;11.10;79.40;;;10.48;66.83;93742.00;5051155;28;20202;-79
2021/05/02 06:17:37;;;;;;;1.45;1.35;;;11.10;79.60;;;10.42;67.11;93775.13;5052918;28;20238;-80
2021/05/02 06:20:08;;;;;;;1.10;1.10;;;11.10;79.60;;;10.43;67.16;93774.09;5051693;28;20191;-81
2021/05/02 06:22:35;;;;;;;1.88;1.40;;;11.10;79.80;;;10.37;67.54;93773.13;5053963;28;20326;-80
2021/05/02 06:25:01;;;;;;;1.70;1.23;;;11.00;79.60;;;10.33;67.26;93792.94;5020938;28;20670;-79
2021/05/02 06:27:29;;;;;;;2.08;1.17;;;11.00;79.80;;;10.32;67.13;93787.91;5049154;28;20238;-80
2021/05/02 06:29:55;;;;;;;1.38;1.27;;;11.00;80.70;;;10.26;67.55;93810.53;5062877;28;20260;-80
2021/05/02 06:32:22;;;;;;;1.20;1.10;;;11.00;80.00;;;10.25;67.48;93806.31;5044018;28;20269;-80
2021/05/02 06:34:52;;;;;;;1.63;1.30;;;10.90;80.00;;;10.22;67.31;93818.03;5060982;28;20232;-80
2021/05/02 06:37:19;;;;;;;1.42;1.23;;;10.90;79.90;;;10.06;67.40;93835.09;5055010;28;20307;-79
2021/05/02 06:39:46;;;;;;;1.30;1.30;;;10.90;80.20;;;9.98;67.16;93837.19;5054092;28;20302;-80
2021/05/02 06:42:12;;;;;;;1.20;1.10;;;10.80;79.70;;;9.96;67.40;93863.63;5055218;28;20462;-79
2021/05/02 06:44:39;;;;;;;1.85;1.20;;;10.70;79.60;;;9.90;67.32;93865.25;5041638;28;20198;-80
2021/05/02 06:47:06;;;;;;;1.35;1.20;;;10.70;79.50;;;9.84;67.44;93866.13;5074252;28;20640;-79
2021/05/02 06:49:35;;;;;;;1.60;1.50;;;10.60;79.50;;;9.78;66.90;93887.91;5085462;28;20256;-79
2021/05/02 06:52:02;;;;;;;1.55;1.42;;;10.60;79.40;;;9.63;67.54;93887.41;5070744;28;20251;-79
2021/05/02 06:54:29;;;;;;;1.50;1.40;;;10.50;79.50;;;9.50;67.73;93883.06;5055319;28;20199;-79
2021/05/02 06:56:55;;;;;;;1.48;1.33;;;10.40;79.60;;;9.48;67.62;93901.56;5038554;28;20203;-79
2021/05/02 06:59:22;;;;;;;1.67;1.40;;;10.30;79.70;;;9.49;68.02;93905.00;5054722;28;20211;-78
2021/05/02 07:01:49;;;;;;;1.88;1.50;;;10.30;79.90;;;9.50;67.94;93906.63;5068967;28;20191;-79
2021/05/02 07:04:16;;;;;;;1.50;1.40;;;10.20;79.90;;;9.47;67.82;93918.28;5049198;28;20210;-79
2021/05/02 07:06:43;;;;;;;1.75;1.45;;;10.20;79.90;;;9.48;67.53;93932.19;5058456;28;20214;-79
2021/05/02 07:09:09;;;;;;;1.50;1.35;;;10.20;79.90;;;9.42;67.55;93952.97;5069218;28;20314;-79
2021/05/02 07:11:36;;;;;;;1.85;1.70;;;10.20;79.80;;;9.33;66.93;93940.31;5071321;28;20223;-79
2021/05/02 07:14:04;;;;;;;1.90;1.60;;;10.10;79.50;;;9.26;67.14;93951.63;5062630;28;20219;-80
2021/05/02 07:16:30;;;;;;;1.75;1.65;;;10.10;79.50;;;9.17;67.23;93958.09;5038320;28;20203;-80
2021/05/02 07:18:57;;;;;;;2.08;1.90;;;10.00;79.40;;;9.07;67.24;93983.84;5054574;28;20490;-79
2021/05/02 07:21:24;;;;;;;1.95;1.70;;;9.90;80.40;;;8.95;66.87;93987.09;5066785;28;20661;-80
2021/05/02 07:23:53;;;;;;;2.15;1.95;;;9.80;80.10;;;8.85;66.83;93984.13;5054466;28;20215;-80
2021/05/02 07:26:22;;;;;;;2.10;1.60;;;9.80;80.00;;;8.73;66.44;94001.44;5038283;28;20199;-79
2021/05/02 07:28:50;;;;;;;1.70;1.60;;;9.60;79.90;;;8.54;66.36;94001.22;5068399;28;20255;-80
2021/05/02 07:31:17;;;;;;;1.55;1.45;;;9.50;79.80;;;8.50;66.67;94018.31;5074364;28;20218;-79
2021/05/02 07:33:44;;;;;;;3.85;1.48;;;9.50;79.80;;;8.38;66.66;94001.59;5037407;28;20262;-79
2021/05/02 07:36:12;;;;;;;1.25;1.25;;;9.30;79.70;;;8.28;66.68;94020.28;5061642;28;20206;-79
2021/05/02 07:38:40;;;;;;;1.30;1.27;;;9.30;79.80;;;8.21;66.36;94022.88;5021431;28;20226;-79
2021/05/02 07:41:07;;;;;;;1.40;1.30;;;9.20;79.70;;;8.08;67.00;94023.69;5021547;28;20245;-79
2021/05/02 07:43:33;;;;;;;1.52;1.42;;;9.00;79.80;;;7.99;67.02;94033.47;5045152;28;20309;-79
2021/05/02 07:46:01;;;;;;;1.50;1.40;;;9.00;80.00;;;7.93;66.96;94068.22;5069987;28;20202;-80
2021/05/02 07:48:29;;;;;;;1.55;1.40;;;8.90;80.10;;;7.90;67.99;94055.56;5057915;28;20622;-80
2021/05/02 07:50:57;;;;;;;1.30;1.27;;;8.80;80.40;;;7.89;67.79;94061.78;5056872;28;20316;-79
2021/05/02 07:53:24;;;;;;;1.50;1.40;;;8.70;80.70;;;7.94;67.80;94062.00;5073938;28;20301;-80
2021/05/02 07:55:51;;;;;;;1.40;1.30;;;8.80;80.90;;;7.95;67.41;94061.00;5040860;28;20232;-80
2021/05/02 07:58:18;;;;;;;1.58;1.48;;;8.70;81.00;;;8.00;67.97;94071.66;5054216;28;20246;-80
2021/05/02 08:00:44;;;;;;;1.50;1.40;;;8.70;81.20;;;8.02;68.00;94072.28;5022128;28;20198;-80
2021/05/02 08:03:11;;;;;;;1.55;1.45;;;8.70;81.20;;;8.09;67.88;94076.72;5054709;28;20254;-80
2021/05/02 08:05:38;;;;;;;1.60;1.50;;;8.70;81.20;;;8.10;67.73;94100.00;5074139;28;20616;-79
2021/05/02 08:08:05;;;;;;;1.52;1.42;;;8.80;81.30;;;8.13;67.69;94114.47;5073793;28;20218;-80
2021/05/02 08:10:32;;;;;;;1.60;1.50;;;8.80;81.20;;;8.17;68.19;94100.84;5044517;28;20219;-80
2021/05/02 08:12:59;;;;;;;1.92;1.70;;;8.80;81.30;;;8.22;67.94;94104.69;5039750;28;20585;-80
2021/05/02 08:15:27;;;;;;;1.70;1.60;;;8.90;81.40;;;8.33;67.99;94119.78;5056710;28;20229;-81
2021/05/02 08:17:56;;;;;;;1.70;1.60;;;8.90;81.40;;;8.36;67.70;94108.94;5056586;28;20225;-79
2021/05/02 08:20:24;;;;;;;1.60;1.50;;;9.00;81.40;;;8.38;67.79;94137.47;5049815;28;20252;-79
2021/05/02 08:22:51;;;;;;;1.70;1.60;;;9.00;81.60;;;8.33;67.55;94128.41;5039599;28;20233;-80
2021/05/02 08:25:19;;;;;;;1.63;1.52;;;9.00;81.50;;;8.41;67.56;94131.84;5036538;28;20211;-79
2021/05/02 08:27:49;;;;;;;1.77;1.67;;;9.10;82.30;;;8.50;67.65;94143.78;5037279;28;20211;-79
2021/05/02 08:30:15;;;;;;;1.50;1.40;;;9.10;81.50;;;8.59;67.89;94150.44;5023618;28;20248;-78
2021/05/02 08:32:43;;;;;;;3.10;1.63;;;9.10;82.00;;;8.64;67.55;94160.28;5053310;28;20268;-79
2021/05/02 08:35:10;;;;;;;1.60;1.50;;;9.30;81.50;;;8.69;67.00;94163.13;5040670;28;20222;-79
2021/05/02 08:37:37;;;;;;;1.63;1.52;;;9.20;81.40;;;8.77;67.34;94155.06;5053829;28;20306;-79
2021/05/02 08:40:06;;;;;;;1.60;1.50;;;9.30;81.60;;;8.88;67.72;94152.88;5051154;28;20210;-80
2021/05/02 08:42:33;;;;;;;1.60;1.50;;;9.40;81.60;;;8.97;68.06;94164.75;5062598;28;20221;-79
2021/05/02 08:45:01;;;;;;;1.60;1.50;;;9.50;81.90;;;9.06;66.79;94157.53;5037039;28;20205;-78
2021/05/02 08:47:34;;;;;;;1.50;1.40;;;9.60;81.20;;;9.18;66.98;94157.72;5041304;28;20264;-78
2021/05/02 08:50:10;;;;;;;1.40;1.30;;;9.70;81.40;;;9.22;66.26;94164.97;5039374;28;20210;-79
2021/05/02 08:52:38;;;;;;;1.67;1.58;;;9.70;81.10;;;9.20;65.96;94166.97;5070120;28;20290;-79
2021/05/02 08:55:07;;;;;;;1.60;1.50;;;9.80;80.50;;;9.12;66.05;94167.19;5036744;28;20199;-80
2021/05/02 08:57:35;;;;;;;1.48;1.38;;;9.80;80.20;;;9.18;66.08;94176.03;5055405;28;20226;-80
2021/05/02 09:00:07;;;;;;;2.20;1.77;;;9.80;80.60;;;9.29;66.17;94175.44;5060583;28;20212;-82
2021/05/02 09:02:35;;;;;;;1.58;1.48;;;9.80;80.70;;;9.37;66.41;94177.81;5064619;28;20284;-82
2021/05/02 09:05:05;;;;;;;1.63;1.52;;;9.90;80.90;;;9.41;66.07;94165.97;5041495;28;20212;-81
2021/05/02 09:07:44;;;;;;;1.55;1.45;;;10.00;79.60;;;9.50;65.70;94194.56;5056797;28;20708;-81
2021/05/02 09:10:13;;;;;;;1.55;1.45;;;10.10;79.10;;;9.54;65.77;94230.56;5045197;28;20207;-82
2021/05/02 09:12:43;;;;;;;1.60;1.50;;;10.10;79.30;;;9.59;66.25;94201.19;5048165;28;20264;-82
2021/05/02 09:15:20;;;;;;;1.92;1.60;;;10.10;79.20;;;9.60;65.42;94205.41;5041865;28;20206;-83
2021/05/02 09:18:19;;;;;;;1.50;1.40;;;10.20;79.00;;;9.63;65.59;94202.41;5066009;28;20230;-83
2021/05/02 09:20:53;;;;;;;1.85;1.75;;;10.30;79.00;;;9.71;65.12;94206.59;5056558;28;20240;-81
2021/05/02 09:23:20;;;;;;;1.80;1.70;;;10.40;78.60;;;9.72;65.33;94218.69;5040108;28;20226;-80
2021/05/02 09:25:54;;;;;;;1.90;1.80;;;10.30;78.80;;;9.73;65.15;94231.59;5040340;28;20238;-80
2021/05/02 09:28:52;;;;;;;1.60;1.50;;;10.30;78.40;;;9.66;64.17;94222.91;5054764;28;20681;-82
2021/05/02 09:31:34;;;;;;;1.70;1.60;;;10.30;77.50;;;9.57;64.19;94224.13;5055338;28;20223;-79
2021/05/02 09:34:15;;;;;;;1.75;1.65;;;10.30;77.90;;;9.47;64.45;94226.34;5051737;28;20237;-81
2021/05/02 09:37:03;;;;;;;1.85;1.70;;;10.30;77.60;;;9.46;64.61;94238.66;5058646;28;20202;-82
2021/05/02 09:39:51;;;;;;;2.35;1.70;;;10.20;77.80;;;9.42;64.87;94237.44;5076484;28;20340;-81
2021/05/02 09:42:25;;;;;;;2.00;1.90;;;10.20;77.80;;;9.45;64.99;94256.16;5033287;28;20238;-82
2021/05/02 09:44:57;;;;;;;1.90;1.80;;;10.20;78.10;;;9.46;64.75;94259.59;5075224;28;20247;-82
2021/05/02 09:47:38;;;;;;;1.80;1.60;;;10.10;78.00;;;9.55;64.86;94252.34;5048498;28;20227;-82
2021/05/02 09:50:23;;;;;;;1.75;1.65;;;10.20;78.30;;;9.59;64.80;94269.25;5054452;28;20370;-79
2021/05/02 09:53:02;;;;;;;1.70;1.60;;;10.20;78.10;;;9.64;64.47;94260.78;5036578;28;20211;-82
2021/05/02 09:55:44;;;;;;;1.73;1.63;;;10.20;78.40;;;9.66;64.85;94271.88;5031165;28;20724;-80
2021/05/02 09:58:23;;;;;;;1.70;1.60;;;10.20;78.10;;;9.69;64.56;94292.41;5059570;28;20226;-80
2021/05/02 10:00:49;;;;;;;1.58;1.48;;;10.30;78.20;;;9.70;64.24;94273.06;5055650;28;20218;-79
2021/05/02 10:03:17;;;;;;;1.80;1.70;;;10.30;78.10;;;9.69;64.40;94263.59;5074161;28;20215;-82
2021/05/02 10:06:32;;;;;;;1.70;1.60;;;10.30;78.30;;;9.76;64.18;94269.66;5072445;28;20223;-81
2021/05/02 10:09:01;;;;;;;1.63;1.52;;;10.30;78.00;;;9.85;64.56;94278.91;5029395;28;20709;-81
2021/05/02 10:11:28;;;;;;;1.60;1.50;;;10.30;78.30;;;9.92;64.59;94284.13;5038705;28;20235;-82
2021/05/02 10:13:55;;;;;;;2.17;1.98;;;10.40;78.50;;;9.99;64.68;94281.53;5029322;28;20226;-81
2021/05/02 10:16:22;;;;;;;1.80;1.70;;;10.40;78.60;;;10.11;63.87;94295.63;5058690;28;20206;-81
2021/05/02 10:18:49;;;;;;;1.50;1.40;;;10.50;78.30;;;10.19;63.92;94300.66;5058471;28;20699;-82
2021/05/02 10:21:16;;;;;;;1.50;1.40;;;10.50;78.30;;;10.23;63.55;94296.59;5043713;28;20245;-82
2021/05/02 10:23:44;;;;;;;1.60;1.50;;;10.60;78.10;;;10.21;63.21;94324.03;5052461;28;20215;-82
2021/05/02 10:26:11;;;;;;;1.95;1.85;;;10.60;77.80;;;10.22;63.38;94320.41;5022720;28;20195;-82
2021/05/02 10:28:39;;;;;;;2.30;1.67;;;10.70;77.80;;;10.20;63.67;94322.41;5055303;28;20222;-83